Time;durP1;ratioP1;P1;durP2;ratioP2;P2;SDS_P1;SDS_P2;PMS_P1;PMS_P2;Temp;Humidity;BMP_temperature;BMP_pressure;BME280_temperature;BME280_humidity;BME280_pressure;Samples;Min_cycle;Max_cycle;Signal;HPM_P1;HPM_P2
2023/06/02 00:00:09;;;;;;;7.73;5.50;;;;;;;10.63;73.67;101283.38;5045421;28;20275;-75
2023/06/02 00:02:36;;;;;;;8.93;5.27;;;;;;;10.64;74.23;101277.25;5054008;28;20254;-75
2023/06/02 00:05:05;;;;;;;10.70;4.93;;;;;;;10.57;74.40;101259.06;5053806;28;20229;-74
2023/06/02 00:07:31;;;;;;;7.77;5.43;;;;;;;10.65;74.47;101250.28;5053791;28;20206;-75
2023/06/02 00:09:58;;;;;;;9.83;5.60;;;;;;;10.52;75.18;101240.78;5053474;28;20283;-74
2023/06/02 00:12:25;;;;;;;10.13;5.33;;;;;;;10.63;74.53;101225.94;5054079;28;20212;-75
2023/06/02 00:14:52;;;;;;;12.27;6.03;;;;;;;10.55;74.72;101232.94;5053832;28;20209;-75
2023/06/02 00:17:20;;;;;;;12.37;5.73;;;;;;;10.71;74.91;101231.97;5053629;28;20201;-75
2023/06/02 00:19:47;;;;;;;8.73;6.20;;;;;;;10.62;75.33;101223.31;5053200;28;20660;-76
2023/06/02 00:22:15;;;;;;;12.83;6.83;;;;;;;10.66;75.45;101211.97;5053255;28;20213;-75
2023/06/02 00:24:42;;;;;;;12.83;6.47;;;;;;;10.62;75.34;101210.25;5053506;28;20241;-75
2023/06/02 00:27:08;;;;;;;14.00;6.07;;;;;;;10.53;75.51;101212.06;5053349;28;20215;-75
2023/06/02 00:29:36;;;;;;;10.83;6.67;;;;;;;10.45;75.64;101205.16;5034743;28;20222;-75
2023/06/02 00:32:02;;;;;;;11.43;5.73;;;;;;;10.49;75.70;101199.91;5033457;28;20206;-75
2023/06/02 00:34:30;;;;;;;13.73;6.57;;;;;;;10.41;76.03;101196.47;5033026;28;20214;-75
2023/06/02 00:36:56;;;;;;;9.03;5.57;;;;;;;10.37;76.65;101178.25;5032499;28;20237;-75
2023/06/02 00:39:23;;;;;;;9.83;5.07;;;;;;;10.32;77.29;101167.81;5033120;28;20226;-76
2023/06/02 00:41:49;;;;;;;9.83;4.53;;;;;;;10.26;76.00;101173.06;5033357;28;20264;-74
2023/06/02 00:44:16;;;;;;;9.70;4.50;;;;;;;10.34;75.44;101174.75;5032823;28;20741;-75
2023/06/02 00:46:42;;;;;;;8.60;4.80;;;;;;;10.36;75.89;101181.72;5032813;28;20222;-75
2023/06/02 00:49:09;;;;;;;9.03;4.93;;;;;;;10.46;75.78;101184.25;5032663;28;20249;-75
2023/06/02 00:51:37;;;;;;;7.77;4.17;;;;;;;10.47;75.51;101183.38;5032886;28;20586;-75
2023/06/02 00:54:04;;;;;;;5.90;3.73;;;;;;;10.37;75.15;101193.91;5033066;28;20214;-75
2023/06/02 00:56:30;;;;;;;7.27;3.57;;;;;;;10.46;74.14;101212.09;5032776;28;20268;-75
2023/06/02 00:58:56;;;;;;;7.93;3.43;;;;;;;10.60;74.09;101231.16;5032394;28;20226;-75
2023/06/02 01:01:23;;;;;;;8.37;3.50;;;;;;;10.33;74.29;101248.72;5033042;28;20221;-75
2023/06/02 01:03:51;;;;;;;11.03;3.10;;;;;;;10.32;74.41;101244.34;5032534;28;20255;-75
2023/06/02 01:06:22;;;;;;;7.07;3.40;;;;;;;10.26;74.87;101244.34;5032421;28;20229;-75
2023/06/02 01:08:52;;;;;;;7.67;4.43;;;;;;;10.22;74.37;101241.78;5032463;28;20239;-75
2023/06/02 01:11:19;;;;;;;11.23;3.80;;;;;;;10.18;74.39;101247.88;5032728;28;20693;-76
2023/06/02 01:13:46;;;;;;;7.07;3.57;;;;;;;10.17;73.65;101261.78;5032464;28;20679;-75
2023/06/02 01:16:13;;;;;;;8.33;4.17;;;;;;;10.13;74.36;101261.81;5032257;28;20601;-75
2023/06/02 01:18:42;;;;;;;10.50;4.70;;;;;;;10.16;74.16;101260.06;5032277;28;20229;-75
2023/06/02 01:21:09;;;;;;;8.17;4.70;;;;;;;10.12;73.82;101267.91;5032520;28;20214;-76
2023/06/02 01:23:36;;;;;;;16.00;4.77;;;;;;;10.01;73.77;101277.53;5032709;28;20205;-76
2023/06/02 01:26:05;;;;;;;9.90;4.63;;;;;;;10.07;73.92;101269.69;5032027;28;20229;-75
2023/06/02 01:28:32;;;;;;;12.93;4.90;;;;;;;9.99;74.50;101273.16;5030879;28;20214;-76
2023/06/02 01:31:03;;;;;;;7.60;3.57;;;;;;;10.03;74.24;101257.53;5032032;28;20217;-76
2023/06/02 01:33:35;;;;;;;8.43;3.53;;;;;;;10.11;74.53;101260.97;5032518;28;20198;-76
2023/06/02 01:36:02;;;;;;;7.43;3.40;;;;;;;10.05;74.08;101255.78;5032365;28;20721;-76
2023/06/02 01:38:31;;;;;;;9.23;3.80;;;;;;;10.01;73.41;101276.63;5031783;28;20230;-76
2023/06/02 01:41:00;;;;;;;8.77;4.10;;;;;;;10.07;73.85;101263.59;5032164;28;20292;-76
2023/06/02 01:43:29;;;;;;;8.67;3.93;;;;;;;10.18;73.45;101260.94;5031950;28;20576;-76
2023/06/02 01:45:57;;;;;;;8.40;4.23;;;;;;;10.13;73.87;101267.03;5031916;28;20233;-76
2023/06/02 01:48:23;;;;;;;6.47;3.70;;;;;;;10.08;74.35;101258.34;5031834;28;20280;-74
2023/06/02 01:50:50;;;;;;;10.13;3.87;;;;;;;10.17;73.61;101262.69;5032189;28;20668;-76
2023/06/02 01:53:17;;;;;;;9.93;4.63;;;;;;;10.09;73.43;101280.97;5032039;28;20283;-76
2023/06/02 01:55:43;;;;;;;8.33;4.00;;;;;;;10.00;74.58;101277.53;5032180;28;20289;-76
2023/06/02 01:58:10;;;;;;;9.97;4.70;;;;;;;10.14;74.31;101260.06;5031278;28;20652;-73
2023/06/02 02:00:37;;;;;;;8.50;4.83;;;;;;;10.28;73.77;101262.63;5032089;28;20228;-76
2023/06/02 02:03:04;;;;;;;6.77;3.67;;;;;;;10.32;73.64;101270.47;5032082;28;20206;-76
2023/06/02 02:05:31;;;;;;;12.53;4.60;;;;;;;10.37;73.71;101269.59;5031816;28;20269;-75
2023/06/02 02:07:57;;;;;;;7.37;3.90;;;;;;;10.33;73.49;101273.97;5031640;28;20210;-75
2023/06/02 02:12:51;;;;;;;8.77;3.60;;;;;;;10.12;74.65;101262.69;5050807;28;20601;-80
2023/06/02 02:15:18;;;;;;;7.20;4.33;;;;;;;10.17;74.75;101243.53;5044459;28;20210;-80
2023/06/02 02:17:47;;;;;;;11.23;4.20;;;;;;;10.05;74.42;101247.06;5042675;28;20205;-78
2023/06/02 02:20:16;;;;;;;14.07;5.10;;;;;;;10.04;74.28;101250.56;5043175;28;20210;-79
2023/06/02 02:22:42;;;;;;;12.23;4.67;;;;;;;10.03;74.28;101259.25;5043260;28;20258;-80
2023/06/02 02:25:09;;;;;;;6.10;3.40;;;;;;;10.12;73.91;101260.06;5043770;28;20202;-80
2023/06/02 02:27:36;;;;;;;11.07;3.80;;;;;;;10.18;74.09;101253.09;5043034;28;20221;-80
2023/06/02 02:30:04;;;;;;;10.17;4.20;;;;;;;10.32;74.05;101253.94;5049710;28;20206;-79
2023/06/02 02:32:30;;;;;;;5.33;3.80;;;;;;;10.15;74.31;101259.22;5058761;28;20253;-80
2023/06/02 02:34:58;;;;;;;13.93;4.10;;;;;;;10.10;74.08;101260.97;5063234;28;20209;-79
2023/06/02 02:37:24;;;;;;;7.50;3.53;;;;;;;10.25;73.87;101258.28;5062899;28;20259;-80
2023/06/02 02:39:51;;;;;;;8.23;4.87;;;;;;;10.19;74.54;101267.88;5063325;28;20216;-80
2023/06/02 02:42:17;;;;;;;7.23;4.80;;;;;;;10.08;75.14;101257.50;5063989;28;20247;-81
2023/06/02 02:44:43;;;;;;;7.17;3.57;;;;;;;10.20;75.45;101236.56;5063923;28;20202;-80
2023/06/02 02:47:10;;;;;;;11.47;4.23;;;;;;;10.30;75.23;101230.44;5063481;28;20221;-80
2023/06/02 02:49:36;;;;;;;11.73;4.70;;;;;;;10.13;75.67;101230.50;5065532;28;20239;-80
2023/06/02 02:52:04;;;;;;;7.60;3.43;;;;;;;10.18;75.42;101220.06;5064991;28;20226;-80
2023/06/02 02:54:31;;;;;;;10.30;4.23;;;;;;;10.21;75.47;101222.66;5063369;28;20201;-80
2023/06/02 02:56:57;;;;;;;14.40;4.50;;;;;;;10.18;75.53;101216.59;5065679;28;20201;-80
2023/06/02 02:59:23;;;;;;;10.73;4.67;;;;;;;10.05;76.00;101208.81;5058534;28;20203;-80
2023/06/02 03:01:50;;;;;;;8.10;3.90;;;;;;;10.03;76.20;101194.91;5046737;28;20229;-80
2023/06/02 03:04:18;;;;;;;6.33;4.20;;;;;;;9.97;76.67;101194.06;5047648;28;20283;-80
2023/06/02 03:06:45;;;;;;;10.17;3.90;;;;;;;9.99;76.59;101172.34;5059162;28;20218;-79
2023/06/02 03:09:13;;;;;;;10.50;4.70;;;;;;;10.08;76.47;101163.59;5052457;28;20659;-80
2023/06/02 03:11:39;;;;;;;15.97;5.27;;;;;;;10.13;76.57;101162.69;5047793;28;20341;-80
2023/06/02 03:14:06;;;;;;;7.23;4.00;;;;;;;10.12;76.92;101160.94;5047384;28;20205;-80
2023/06/02 03:16:34;;;;;;;11.73;4.13;;;;;;;10.03;77.57;101139.25;5047690;28;20203;-80
2023/06/02 03:19:02;;;;;;;9.03;3.63;;;;;;;10.12;77.54;101131.38;5046697;28;20239;-80
2023/06/02 03:21:31;;;;;;;6.77;3.47;;;;;;;10.08;77.63;101133.13;5046045;28;20716;-80
2023/06/02 03:23:57;;;;;;;6.33;3.90;;;;;;;10.09;77.48;101132.28;5047081;28;20229;-80
2023/06/02 03:26:26;;;;;;;11.80;3.53;;;;;;;10.04;77.93;101125.34;5046366;28;20230;-80
2023/06/02 03:28:53;;;;;;;8.43;3.53;;;;;;;10.07;77.87;101128.81;5053252;28;20213;-80
2023/06/02 03:31:20;;;;;;;7.63;3.50;;;;;;;10.24;77.78;101123.47;5047544;28;20222;-80
2023/06/02 03:33:47;;;;;;;10.73;3.53;;;;;;;10.07;78.05;101127.97;5047671;28;20202;-79
2023/06/02 03:36:17;;;;;;;8.90;3.67;;;;;;;10.15;78.29;101120.94;5046095;28;20330;-80
2023/06/02 03:38:44;;;;;;;9.77;3.83;;;;;;;10.31;78.09;101122.59;5046792;28;20676;-79
2023/06/02 03:41:10;;;;;;;12.17;3.50;;;;;;;10.31;77.66;101125.22;5046880;28;20222;-79
2023/06/02 03:43:38;;;;;;;10.97;4.43;;;;;;;10.49;77.30;101132.03;5046914;28;20209;-80
2023/06/02 03:46:04;;;;;;;7.47;3.30;;;;;;;10.62;76.91;101145.00;5046940;28;20237;-79
2023/06/02 03:48:31;;;;;;;7.43;3.33;;;;;;;10.55;76.90;101161.59;5046306;28;20206;-79
2023/06/02 03:50:57;;;;;;;9.73;3.60;;;;;;;10.44;77.76;101152.06;5047177;28;20280;-79
2023/06/02 03:53:24;;;;;;;9.10;3.67;;;;;;;10.32;78.61;101145.19;5047218;28;20202;-79
2023/06/02 03:55:50;;;;;;;7.83;3.60;;;;;;;10.42;78.82;101125.13;5046257;28;20233;-79
2023/06/02 03:58:17;;;;;;;10.20;3.37;;;;;;;10.38;78.47;101123.41;5048461;28;20252;-79
2023/06/02 04:00:45;;;;;;;12.47;3.60;;;;;;;10.38;78.71;101123.41;5050143;28;20229;-80
2023/06/02 04:03:11;;;;;;;10.50;4.00;;;;;;;10.44;78.85;101123.38;5046282;28;20736;-80
2023/06/02 04:05:38;;;;;;;5.03;3.03;;;;;;;10.39;79.37;101116.47;5046812;28;20242;-79
2023/06/02 04:08:04;;;;;;;7.93;3.43;;;;;;;10.47;79.45;101115.53;5046295;28;20252;-79
2023/06/02 04:10:31;;;;;;;8.43;3.20;;;;;;;10.65;79.12;101111.03;5046614;28;20210;-79
2023/06/02 04:12:57;;;;;;;7.27;4.23;;;;;;;10.70;78.56;101123.19;5046954;28;20253;-80
2023/06/02 04:15:24;;;;;;;7.67;3.83;;;;;;;10.57;78.75;101132.00;5046590;28;20209;-80
2023/06/02 04:17:51;;;;;;;8.30;4.57;;;;;;;10.44;79.36;101138.16;5045712;28;20208;-80
2023/06/02 04:20:18;;;;;;;11.57;4.63;;;;;;;10.51;79.32;101117.22;5046460;28;20277;-79
2023/06/02 04:22:44;;;;;;;7.97;3.93;;;;;;;10.50;79.61;101115.53;5046429;28;20226;-80
2023/06/02 04:25:10;;;;;;;7.43;3.67;;;;;;;10.72;79.38;101104.88;5052322;28;20212;-80
2023/06/02 04:27:37;;;;;;;7.30;3.70;;;;;;;10.52;79.69;101124.22;5045363;28;20295;-80
2023/06/02 04:30:04;;;;;;;8.20;4.70;;;;;;;10.54;80.37;101108.50;5049533;28;20712;-80
2023/06/02 04:32:30;;;;;;;9.00;3.70;;;;;;;10.51;80.51;101095.50;5042906;28;20238;-80
2023/06/02 04:34:58;;;;;;;8.43;3.73;;;;;;;10.52;80.66;101092.00;5045088;28;20233;-80
2023/06/02 04:37:25;;;;;;;9.63;4.50;;;;;;;10.48;80.82;101088.53;5044414;28;20228;-81
2023/06/02 04:39:52;;;;;;;11.50;5.87;;;;;;;10.45;80.71;101085.97;5044378;28;20206;-81
2023/06/02 04:42:18;;;;;;;11.70;6.57;;;;;;;10.32;81.15;101089.53;5044256;28;20759;-81
2023/06/02 04:44:45;;;;;;;11.23;7.33;;;;;;;10.33;81.42;101084.31;5044952;28;20225;-79
2023/06/02 04:47:11;;;;;;;15.30;7.57;;;;;;;10.43;80.33;101089.47;5044233;28;20256;-80
2023/06/02 04:49:38;;;;;;;10.33;6.50;;;;;;;10.53;80.13;101099.81;5045295;28;20233;-80
2023/06/02 04:52:07;;;;;;;13.97;6.80;;;;;;;10.56;80.47;101109.34;5045672;28;20229;-80
2023/06/02 04:54:33;;;;;;;12.40;6.40;;;;;;;10.58;80.48;101118.03;5045317;28;20206;-80
2023/06/02 04:57:00;;;;;;;10.17;6.20;;;;;;;10.58;79.94;101118.03;5045601;28;20210;-79
2023/06/02 04:59:27;;;;;;;8.90;7.03;;;;;;;10.60;80.23;101123.25;5050951;28;20198;-79
2023/06/02 05:01:53;;;;;;;11.60;5.20;;;;;;;10.58;80.44;101117.19;5044887;28;20233;-80
2023/06/02 05:04:21;;;;;;;12.50;5.70;;;;;;;10.47;81.36;101102.47;5044463;28;20735;-80
2023/06/02 05:06:48;;;;;;;12.27;5.43;;;;;;;10.69;81.17;101094.47;5046156;28;20293;-81
2023/06/02 05:09:16;;;;;;;9.67;5.40;;;;;;;10.69;81.52;101094.47;5044940;28;20285;-80
2023/06/02 05:11:43;;;;;;;10.90;5.53;;;;;;;10.71;81.26;101093.56;5045709;28;20241;-79
2023/06/02 05:14:09;;;;;;;8.20;4.97;;;;;;;10.47;82.10;101085.97;5044743;28;20216;-80
2023/06/02 05:16:36;;;;;;;10.10;4.90;;;;;;;10.71;81.74;101069.22;5044285;28;20590;-80
2023/06/02 05:19:04;;;;;;;13.70;5.03;;;;;;;10.56;82.86;101058.91;5045265;28;20206;-80
2023/06/02 05:21:30;;;;;;;13.43;5.57;;;;;;;10.65;81.99;101064.06;5045098;28;20685;-80
2023/06/02 05:23:58;;;;;;;7.80;4.73;;;;;;;10.69;81.87;101066.59;5044580;28;20206;-78
2023/06/02 05:26:26;;;;;;;11.80;4.57;;;;;;;10.59;81.38;101080.63;5044461;28;20276;-80
2023/06/02 05:28:53;;;;;;;12.07;4.63;;;;;;;10.68;81.95;101070.13;5049778;28;20636;-80
2023/06/02 05:31:20;;;;;;;13.70;4.20;;;;;;;10.83;81.81;101074.31;5043485;28;20229;-80
2023/06/02 05:33:46;;;;;;;8.90;3.87;;;;;;;10.97;81.24;101073.31;5044320;28;20263;-80
2023/06/02 05:36:13;;;;;;;12.47;4.67;;;;;;;10.90;80.49;101096.00;5044063;28;20582;-80
2023/06/02 05:38:42;;;;;;;10.13;5.33;;;;;;;10.65;81.79;101085.78;5043428;28;20206;-80
2023/06/02 05:41:08;;;;;;;12.73;5.07;;;;;;;10.48;83.16;101067.66;5044367;28;20241;-80
2023/06/02 05:43:36;;;;;;;13.80;5.60;;;;;;;10.65;83.19;101053.59;5044165;28;20229;-79
2023/06/02 05:46:02;;;;;;;14.43;5.80;;;;;;;10.66;82.30;101051.00;5044082;28;20577;-80
2023/06/02 05:48:29;;;;;;;9.37;5.80;;;;;;;10.87;81.69;101062.94;5043078;28;20229;-80
2023/06/02 05:50:55;;;;;;;14.23;5.97;;;;;;;10.80;81.71;101074.34;5044556;28;20230;-80
2023/06/02 05:53:21;;;;;;;8.53;5.87;;;;;;;10.74;82.12;101074.38;5044602;28;20237;-80
2023/06/02 05:55:48;;;;;;;11.67;6.43;;;;;;;10.79;82.45;101066.53;5044346;28;20622;-80
2023/06/02 05:58:14;;;;;;;11.63;5.80;;;;;;;10.98;81.29;101075.03;5043589;28;20684;-80
2023/06/02 06:00:42;;;;;;;9.63;6.27;;;;;;;10.96;81.14;101085.53;5040563;28;20220;-79
2023/06/02 06:03:08;;;;;;;10.33;5.33;;;;;;;10.88;82.47;101075.16;5036467;28;20272;-80
2023/06/02 06:05:34;;;;;;;9.40;5.57;;;;;;;10.94;82.04;101066.34;5036833;28;20591;-81
2023/06/02 06:08:01;;;;;;;10.03;5.77;;;;;;;11.09;81.02;101081.88;5036722;28;20225;-80
2023/06/02 06:10:27;;;;;;;8.60;5.17;;;;;;;11.25;80.65;101102.63;5036200;28;20263;-81
2023/06/02 06:12:54;;;;;;;9.67;5.77;;;;;;;11.07;80.92;101112.38;5036356;28;20260;-80
2023/06/02 06:15:20;;;;;;;10.70;6.47;;;;;;;11.10;81.59;101108.88;5036028;28;20243;-81
2023/06/02 06:17:52;;;;;;;14.47;7.23;;;;;;;11.21;81.66;101100.91;5036653;28;20254;-79
2023/06/02 06:20:19;;;;;;;10.40;7.50;;;;;;;11.19;81.71;101111.38;5036752;28;20263;-80
2023/06/02 06:22:45;;;;;;;11.67;8.13;;;;;;;11.43;81.17;101112.00;5037759;28;20268;-80
2023/06/02 06:25:12;;;;;;;10.97;7.60;;;;;;;11.63;79.60;101137.91;5037457;28;20268;-81
2023/06/02 06:27:40;;;;;;;11.63;6.67;;;;;;;11.60;78.45;101162.34;5036320;28;20798;-81
2023/06/02 06:30:07;;;;;;;10.07;7.20;;;;;;;11.68;78.90;101191.88;5042132;28;20665;-81
2023/06/02 06:32:33;;;;;;;13.23;8.37;;;;;;;11.85;78.47;101194.31;5036961;28;20614;-81
2023/06/02 06:35:01;;;;;;;9.67;6.30;;;;;;;11.52;79.43;101206.88;5037405;28;20210;-82
2023/06/02 06:37:28;;;;;;;8.13;6.03;;;;;;;11.63;79.26;101198.91;5040368;28;20202;-82
2023/06/02 06:39:55;;;;;;;10.13;6.27;;;;;;;11.60;80.05;101193.72;5041104;28;20209;-82
2023/06/02 06:42:22;;;;;;;11.93;6.37;;;;;;;11.59;80.24;101178.91;5041146;28;20260;-81
2023/06/02 06:44:49;;;;;;;10.37;6.67;;;;;;;11.73;79.91;101182.25;5040815;28;20238;-81
2023/06/02 06:47:16;;;;;;;11.93;7.13;;;;;;;11.76;78.99;101196.19;5040808;28;20225;-81
2023/06/02 06:49:42;;;;;;;13.83;8.67;;;;;;;11.68;78.37;101210.19;5040713;28;20202;-82
2023/06/02 06:52:10;;;;;;;14.37;7.80;;;;;;;11.64;78.73;101231.19;5039479;28;20371;-80
2023/06/02 06:54:36;;;;;;;11.57;8.10;;;;;;;11.36;79.98;101218.38;5040990;28;20206;-79
2023/06/02 06:57:02;;;;;;;14.83;6.93;;;;;;;11.47;80.05;101199.97;5040872;28;20237;-81
2023/06/02 06:59:29;;;;;;;21.70;7.80;;;;;;;11.55;80.92;101190.28;5046308;28;20213;-80
2023/06/02 07:01:55;;;;;;;15.20;8.30;;;;;;;11.73;80.78;101170.91;5041262;28;20229;-80
2023/06/02 07:04:21;;;;;;;11.23;7.47;;;;;;;11.59;81.33;101175.44;5043364;28;20268;-80
2023/06/02 07:06:48;;;;;;;17.03;10.50;;;;;;;11.55;80.80;101166.75;5042736;28;20206;-82
2023/06/02 07:09:15;;;;;;;15.17;9.53;;;;;;;11.19;82.18;101163.66;5047338;28;20264;-83
2023/06/02 07:11:42;;;;;;;11.47;8.90;;;;;;;11.33;81.89;101135.63;5046055;28;20311;-82
2023/06/02 07:14:08;;;;;;;15.13;9.60;;;;;;;11.54;81.46;101133.66;5047586;28;20677;-80
2023/06/02 07:16:34;;;;;;;18.00;9.57;;;;;;;11.62;81.25;101149.25;5045599;28;20622;-82
2023/06/02 07:19:01;;;;;;;17.07;9.30;;;;;;;11.65;81.55;101147.44;5045742;28;20634;-82
2023/06/02 07:21:27;;;;;;;13.93;9.43;;;;;;;11.58;81.44;101148.44;5044962;28;20226;-80
2023/06/02 07:23:54;;;;;;;17.60;9.60;;;;;;;11.82;80.61;101149.03;5046839;28;20209;-82
2023/06/02 07:26:21;;;;;;;10.37;9.37;;;;;;;11.79;80.56;101165.59;5059775;28;20188;-81
2023/06/02 07:28:48;;;;;;;17.37;10.87;;;;;;;11.85;81.75;101152.47;5055158;28;20741;-81
2023/06/02 07:31:14;;;;;;;14.73;8.87;;;;;;;11.98;80.55;101161.03;5043597;28;20645;-82
2023/06/02 07:33:40;;;;;;;12.73;10.50;;;;;;;12.04;80.48;101163.56;5044420;28;20742;-81
2023/06/02 07:36:07;;;;;;;14.33;8.60;;;;;;;12.09;80.39;101180.09;5046131;28;20847;-81
2023/06/02 07:38:33;;;;;;;12.77;9.47;;;;;;;12.14;79.71;101200.97;5044988;28;20687;-80
2023/06/02 07:41:00;;;;;;;15.83;10.63;;;;;;;12.16;80.62;101188.72;5045053;28;20658;-81
2023/06/02 07:43:28;;;;;;;10.43;9.00;;;;;;;12.34;79.22;101202.44;5044282;28;20212;-79
2023/06/02 07:45:54;;;;;;;13.93;9.37;;;;;;;12.10;79.18;101230.66;5044517;28;20202;-79
2023/06/02 07:48:21;;;;;;;11.07;8.93;;;;;;;12.01;79.73;101226.44;5043943;28;20230;-81
2023/06/02 07:50:47;;;;;;;13.90;9.23;;;;;;;12.28;78.93;101230.44;5048003;28;20276;-81
2023/06/02 07:53:13;;;;;;;17.97;9.83;;;;;;;12.53;79.64;101230.09;5047715;28;20260;-82
2023/06/02 07:55:40;;;;;;;14.53;8.93;;;;;;;12.60;77.75;101251.81;5048628;28;20214;-82
2023/06/02 07:58:06;;;;;;;14.03;9.33;;;;;;;12.40;77.56;101271.28;5047349;28;20255;-81
2023/06/02 08:00:36;;;;;;;17.17;9.80;;;;;;;12.65;77.73;101273.59;5048054;28;20236;-81
2023/06/02 08:03:03;;;;;;;15.17;8.80;;;;;;;12.81;76.92;101288.19;5047838;28;20295;-81
2023/06/02 08:05:29;;;;;;;13.47;7.27;;;;;;;13.01;76.13;101308.00;5058724;28;20203;-82
2023/06/02 08:07:56;;;;;;;13.73;8.57;;;;;;;13.03;75.94;101328.06;5056025;28;20222;-81
2023/06/02 08:10:22;;;;;;;15.67;8.33;;;;;;;13.04;76.48;101339.38;5053610;28;20206;-81
2023/06/02 08:12:49;;;;;;;10.13;9.07;;;;;;;13.09;76.24;101329.72;5107401;23;20256;-81
2023/06/02 08:15:15;;;;;;;14.67;9.10;;;;;;;12.84;75.89;101352.78;5078045;28;20204;-82
2023/06/02 08:17:43;;;;;;;9.70;8.30;;;;;;;12.61;78.56;101321.66;5076792;28;20260;-80
2023/06/02 08:20:10;;;;;;;13.00;8.83;;;;;;;12.81;77.42;101296.06;5076038;28;20206;-81
2023/06/02 08:22:36;;;;;;;9.90;8.47;;;;;;;13.05;77.30;101294.81;5078278;28;20250;-81
2023/06/02 08:25:03;;;;;;;11.67;10.10;;;;;;;12.89;76.00;101309.91;5082388;28;20204;-81
2023/06/02 08:27:33;;;;;;;11.27;8.93;;;;;;;12.84;77.12;101314.38;5088344;28;20367;-80
2023/06/02 08:29:59;;;;;;;16.27;9.93;;;;;;;13.08;76.65;101313.13;5076731;28;20291;-81
2023/06/02 08:32:26;;;;;;;10.53;8.93;;;;;;;13.34;75.65;101324.13;5071499;28;20226;-81
2023/06/02 08:34:56;;;;;;;11.37;8.93;;;;;;;13.49;73.86;101361.44;5078420;28;20205;-79
2023/06/02 08:37:23;;;;;;;17.73;9.53;;;;;;;13.08;74.01;101393.50;5078137;28;20271;-81
2023/06/02 08:39:50;;;;;;;15.60;10.07;;;;;;;13.20;76.35;101363.63;5078632;28;20207;-79
2023/06/02 08:42:17;;;;;;;11.87;9.57;;;;;;;13.08;76.02;101354.19;5078748;28;20234;-79
2023/06/02 08:44:45;;;;;;;21.53;10.10;;;;;;;13.05;76.21;101347.25;5078589;28;20192;-79
2023/06/02 08:47:13;;;;;;;12.93;9.50;;;;;;;12.84;77.36;101334.44;5067192;28;20205;-81
2023/06/02 08:49:42;;;;;;;11.10;9.03;;;;;;;12.96;78.02;101296.72;5062919;28;20283;-79
2023/06/02 08:52:12;;;;;;;11.17;8.83;;;;;;;13.25;76.69;101302.38;5063098;28;20226;-82
2023/06/02 08:54:40;;;;;;;14.00;8.70;;;;;;;13.30;75.37;101331.19;5066304;28;20216;-81
2023/06/02 08:57:09;;;;;;;11.03;7.97;;;;;;;13.55;74.85;101352.63;5074734;28;20197;-79
2023/06/02 08:59:36;;;;;;;10.93;8.40;;;;;;;13.77;73.11;101376.72;5073803;28;20201;-81
2023/06/02 09:02:03;;;;;;;13.87;9.07;;;;;;;13.58;74.12;101412.91;5070155;28;20237;-80
2023/06/02 09:04:29;;;;;;;11.70;8.67;;;;;;;13.63;74.99;101397.94;5064093;28;20627;-82
2023/06/02 09:07:21;;;;;;;11.70;7.93;;;;;;;13.76;73.54;101403.88;5061934;28;20210;-80
2023/06/02 09:09:49;;;;;;;10.77;8.07;;;;;;;13.61;75.90;101412.84;5072095;28;20247;-78
2023/06/02 09:12:17;;;;;;;11.03;7.90;;;;;;;13.95;74.10;101390.44;5080516;28;20724;-82
2023/06/02 09:14:44;;;;;;;8.03;6.50;;;;;;;14.17;70.59;101438.16;5083337;28;20213;-80
2023/06/02 09:17:28;;;;;;;13.07;7.83;;;;;;;14.27;70.74;101498.41;5084467;28;20210;-81
2023/06/02 09:19:57;;;;;;;10.73;8.10;;;;;;;14.38;70.55;101518.34;5086549;28;20217;-81
2023/06/02 09:22:24;;;;;;;9.43;6.90;;;;;;;14.04;73.27;101497.91;5084830;28;20220;-82
2023/06/02 09:24:52;;;;;;;10.37;7.77;;;;;;;14.07;72.37;101479.47;5085246;28;20241;-81
2023/06/02 09:27:19;;;;;;;10.10;6.93;;;;;;;14.27;72.52;101485.28;5082236;28;20218;-81
2023/06/02 09:29:47;;;;;;;11.73;6.97;;;;;;;14.50;71.12;101483.97;5075269;28;20313;-80
2023/06/02 09:32:15;;;;;;;8.53;6.33;;;;;;;14.28;70.17;101529.00;5063445;28;20235;-81
2023/06/02 09:34:42;;;;;;;7.77;6.17;;;;;;;14.34;70.56;101529.81;5070208;28;20201;-79
2023/06/02 09:37:10;;;;;;;7.00;6.30;;;;;;;14.47;70.33;101541.84;5083119;28;20200;-79
2023/06/02 09:39:41;;;;;;;9.30;6.37;;;;;;;14.48;69.26;101551.44;5084925;28;20208;-80
2023/06/02 09:42:09;;;;;;;6.67;5.97;;;;;;;14.62;69.43;101562.59;5084340;28;20303;-80
2023/06/02 09:44:35;;;;;;;6.43;5.80;;;;;;;14.68;69.19;101574.78;5081681;28;20217;-80
2023/06/02 09:47:03;;;;;;;9.07;5.23;;;;;;;14.80;68.81;101584.22;5076913;28;20267;-80
2023/06/02 09:49:39;;;;;;;6.63;5.63;;;;;;;14.88;69.13;101596.34;5076828;28;20233;-81
2023/06/02 09:52:13;;;;;;;7.70;5.13;;;;;;;14.85;68.33;101608.66;5076606;28;20224;-80
2023/06/02 09:54:42;;;;;;;9.60;5.00;;;;;;;15.04;68.31;101603.91;5076396;28;20212;-80
2023/06/02 09:57:10;;;;;;;7.60;4.47;;;;;;;15.17;68.05;101618.56;5077006;28;20206;-81
2023/06/02 09:59:38;;;;;;;6.17;4.80;;;;;;;15.31;67.48;101620.94;5069963;28;20573;-80
2023/06/02 10:02:05;;;;;;;6.87;3.97;;;;;;;15.26;66.18;101656.97;5057666;28;20288;-80
2023/06/02 10:04:31;;;;;;;160.70;14.70;;;;;;;15.17;67.04;101673.81;5057472;28;20207;-80
2023/06/02 10:07:13;;;;;;;4.83;3.90;;;;;;;15.39;67.17;101666.38;5056394;28;20215;-80
2023/06/02 10:09:56;;;;;;;8.37;4.43;;;;;;;15.63;66.26;101675.56;5060823;28;20310;-80
2023/06/02 10:12:33;;;;;;;8.77;4.63;;;;;;;15.85;65.61;101681.28;5062690;28;20254;-81
2023/06/02 10:15:26;;;;;;;8.20;3.60;;;;;;;16.06;65.20;101706.28;5062629;28;20203;-80
2023/06/02 10:18:02;;;;;;;6.37;4.60;;;;;;;16.32;64.00;101718.03;5063277;28;20204;-80
2023/06/02 10:20:33;;;;;;;6.43;3.50;;;;;;;16.27;64.24;101744.50;5062869;28;20257;-80
2023/06/02 10:23:22;;;;;;;8.23;3.83;;;;;;;16.41;64.07;101728.38;5063986;28;20257;-79
2023/06/02 10:26:11;;;;;;;6.40;3.77;;;;;;;16.29;62.27;101762.88;5064210;28;20207;-80
2023/06/02 10:28:38;;;;;;;3.50;3.17;;;;;;;16.34;61.80;101800.56;5062725;28;20276;-79
2023/06/02 10:31:06;;;;;;;10.33;3.40;;;;;;;16.54;62.16;101794.00;5071623;28;20219;-80
2023/06/02 10:33:43;;;;;;;4.87;3.00;;;;;;;16.63;61.49;101805.22;5064239;28;20214;-81
2023/06/02 10:36:12;;;;;;;5.03;3.10;;;;;;;16.72;61.04;101822.56;5063820;28;20566;-80
2023/06/02 10:38:38;;;;;;;6.93;3.00;;;;;;;16.78;61.07;101832.13;5062816;28;20204;-80
2023/06/02 10:41:06;;;;;;;6.57;3.20;;;;;;;16.85;61.23;101825.84;5062692;28;20216;-81
2023/06/02 10:43:33;;;;;;;7.47;3.63;;;;;;;16.94;61.73;101806.31;5062474;28;20913;-80
2023/06/02 10:46:20;;;;;;;7.10;3.27;;;;;;;17.00;61.97;101820.19;5062357;28;20258;-80
2023/06/02 10:48:47;;;;;;;6.03;2.90;;;;;;;17.14;60.21;101813.75;5063391;28;20649;-81
2023/06/02 10:51:14;;;;;;;5.00;2.80;;;;;;;17.27;59.48;101816.03;5063923;28;20228;-80
2023/06/02 10:54:15;;;;;;;5.43;2.80;;;;;;;17.32;59.46;101842.31;5064058;28;20212;-80
2023/06/02 10:56:45;;;;;;;5.80;3.10;;;;;;;17.33;59.61;101856.41;5063594;28;20214;-81
2023/06/02 10:59:31;;;;;;;8.80;3.00;;;;;;;17.37;59.71;101858.91;5066621;28;20222;-80
2023/06/02 11:01:57;;;;;;;4.13;2.83;;;;;;;17.55;59.24;101852.31;5083954;28;20293;-80
2023/06/02 11:04:25;;;;;;;5.63;3.50;;;;;;;17.57;59.55;101853.13;5084400;28;20219;-80
2023/06/02 11:07:18;;;;;;;11.53;3.03;;;;;;;17.46;59.44;101852.53;5084294;28;20204;-80
2023/06/02 11:09:45;;;;;;;3.77;2.80;;;;;;;17.30;59.28;101878.44;5084246;28;20242;-80
2023/06/02 11:12:13;;;;;;;6.47;2.97;;;;;;;17.26;59.07;101871.50;5103348;28;20240;-79
2023/06/02 11:15:15;;;;;;;6.10;2.80;;;;;;;17.15;60.23;101868.25;5092466;28;20207;-81
2023/06/02 11:17:42;;;;;;;5.30;2.80;;;;;;;17.28;60.37;101840.66;5083731;28;20673;-80
2023/06/02 11:20:10;;;;;;;8.87;3.00;;;;;;;17.19;59.16;101840.91;5084057;28;20204;-81
2023/06/02 11:22:37;;;;;;;7.90;2.90;;;;;;;17.27;60.31;101837.16;5080070;28;20224;-81
2023/06/02 11:25:05;;;;;;;7.03;2.63;;;;;;;17.31;59.77;101823.91;5081152;28;20208;-80
2023/06/02 11:27:38;;;;;;;5.93;2.50;;;;;;;17.35;59.81;101823.78;5080142;28;20647;-81